Time;durP1;ratioP1;P1;durP2;ratioP2;P2;SDS_P1;SDS_P2;PMS_P1;PMS_P2;Temp;Humidity;BMP_temperature;BMP_pressure;BME280_temperature;BME280_humidity;BME280_pressure;Samples;Min_cycle;Max_cycle;Signal;HPM_P1;HPM_P2
2023/07/11 00:00:30;;;;;;;8.38;2.90;;;;;;;19.31;100.00;101483.44;5191688;28;20053;-70
2023/07/11 00:03:02;;;;;;;8.15;3.20;;;;;;;19.34;100.00;101483.09;5194914;28;20742;-71
2023/07/11 00:05:33;;;;;;;8.40;2.90;;;;;;;19.22;100.00;101481.66;5191814;28;20440;-71
2023/07/11 00:08:06;;;;;;;7.82;3.10;;;;;;;19.16;100.00;101477.75;5196809;28;20161;-71
2023/07/11 00:10:41;;;;;;;6.85;2.80;;;;;;;19.13;100.00;101471.78;5192318;28;20022;-71
2023/07/11 00:13:12;;;;;;;6.10;2.72;;;;;;;19.00;100.00;101472.19;5190917;28;20137;-71
2023/07/11 00:15:44;;;;;;;5.82;3.00;;;;;;;19.11;100.00;101465.69;5192661;28;20058;-71
2023/07/11 00:18:15;;;;;;;6.32;3.05;;;;;;;18.98;100.00;101469.66;5195027;28;20112;-71
2023/07/11 00:20:46;;;;;;;4.97;2.72;;;;;;;18.91;100.00;101460.47;5192895;28;20089;-71
2023/07/11 00:23:18;;;;;;;8.52;3.13;;;;;;;18.91;100.00;101460.47;5192661;28;20030;-71
2023/07/11 00:25:49;;;;;;;5.35;3.05;;;;;;;19.02;100.00;101458.53;5191645;28;20027;-71
2023/07/11 00:28:21;;;;;;;7.88;3.13;;;;;;;18.83;100.00;101463.13;5195009;28;20623;-71
2023/07/11 00:30:53;;;;;;;5.35;3.10;;;;;;;18.81;100.00;101465.09;5198411;28;20346;-71
2023/07/11 00:33:24;;;;;;;7.20;3.42;;;;;;;18.71;100.00;101465.16;5193090;28;20428;-71
2023/07/11 00:35:56;;;;;;;6.90;3.22;;;;;;;18.72;100.00;101458.78;5191184;28;20377;-71
2023/07/11 00:38:27;;;;;;;9.45;4.13;;;;;;;18.82;100.00;101461.41;5196090;28;20042;-71
2023/07/11 00:40:58;;;;;;;6.60;3.22;;;;;;;18.67;100.00;101455.66;5195363;28;20389;-70
2023/07/11 00:43:30;;;;;;;6.55;3.20;;;;;;;18.63;100.00;101459.69;5194837;28;20764;-71
2023/07/11 00:46:09;;;;;;;5.57;2.97;;;;;;;18.63;100.00;101453.44;5198633;28;20421;-71
2023/07/11 00:48:50;;;;;;;7.43;3.33;;;;;;;18.61;100.00;101451.75;5194589;28;20477;-71
2023/07/11 00:51:33;;;;;;;6.63;3.60;;;;;;;18.57;100.00;101453.06;5210195;28;20061;-71
2023/07/11 00:54:07;;;;;;;6.75;3.22;;;;;;;18.44;100.00;101449.88;5195285;28;20108;-71
2023/07/11 00:56:43;;;;;;;7.60;3.20;;;;;;;18.44;100.00;101455.28;5197912;28;20441;-71
2023/07/11 00:59:17;;;;;;;7.78;3.42;;;;;;;18.36;100.00;101464.16;5196354;28;20511;-71
2023/07/11 01:02:01;;;;;;;6.13;3.03;;;;;;;18.39;100.00;101465.72;5196902;28;20507;-71
2023/07/11 01:04:33;;;;;;;7.73;3.27;;;;;;;18.42;100.00;101465.41;5195677;28;20050;-71
2023/07/11 01:07:08;;;;;;;5.20;3.10;;;;;;;18.31;100.00;101474.56;5193406;28;20046;-71
2023/07/11 01:09:40;;;;;;;6.97;3.30;;;;;;;18.30;100.00;101474.75;5197036;28;20538;-71
2023/07/11 01:12:14;;;;;;;5.32;3.35;;;;;;;18.33;100.00;101474.44;5195077;28;20038;-71
2023/07/11 01:14:48;;;;;;;6.47;3.38;;;;;;;18.24;100.00;101476.22;5196340;28;20077;-71
2023/07/11 01:17:24;;;;;;;6.53;3.00;;;;;;;18.13;100.00;101462.91;5194399;28;21538;-72
2023/07/11 01:19:58;;;;;;;7.90;3.60;;;;;;;18.22;100.00;101462.00;5193433;28;20354;-71
2023/07/11 01:22:31;;;;;;;9.40;3.40;;;;;;;18.26;100.00;101462.56;5195943;28;20026;-71
2023/07/11 01:25:11;;;;;;;7.00;3.40;;;;;;;18.16;100.00;101454.50;5191633;28;20737;-71
2023/07/11 01:27:45;;;;;;;6.38;3.90;;;;;;;18.09;100.00;101464.22;5191886;28;20088;-71
2023/07/11 01:30:18;;;;;;;;;;;;;;;18.34;100.00;101457.22;5196650;28;20030;-71
2023/07/11 01:32:49;;;;;;;6.18;3.42;;;;;;;18.15;100.00;101450.09;5196205;28;20000;-71
2023/07/11 01:35:21;;;;;;;6.18;3.35;;;;;;;18.20;100.00;101443.25;5197161;28;20067;-71
2023/07/11 01:37:52;;;;;;;6.85;3.80;;;;;;;18.20;100.00;101450.50;5194293;28;20038;-71
2023/07/11 01:40:24;;;;;;;8.18;3.42;;;;;;;18.13;100.00;101438.59;5195759;28;20036;-71
2023/07/11 01:42:55;;;;;;;6.57;3.75;;;;;;;17.96;100.00;101438.41;5194230;28;20023;-71
2023/07/11 01:45:27;;;;;;;8.82;3.80;;;;;;;17.86;100.00;101428.69;5193101;28;20052;-71
2023/07/11 01:47:59;;;;;;;8.68;4.28;;;;;;;17.83;100.00;101438.75;5201595;28;20037;-71
2023/07/11 01:50:30;;;;;;;6.18;3.20;;;;;;;17.79;100.00;101423.84;5194860;28;20128;-71
2023/07/11 01:53:02;;;;;;;8.13;3.55;;;;;;;17.71;100.00;101431.00;5197784;28;20017;-71
2023/07/11 01:55:33;;;;;;;7.13;3.03;;;;;;;17.71;100.00;101426.44;5197304;28;20030;-71
2023/07/11 01:58:05;;;;;;;6.47;3.65;;;;;;;17.80;100.00;101420.16;5201577;28;20399;-71
2023/07/11 02:00:37;;;;;;;8.10;3.60;;;;;;;17.69;100.00;101423.06;5190976;28;20033;-71
2023/07/11 02:03:09;;;;;;;6.03;3.50;;;;;;;17.68;100.00;101417.78;5208767;28;20038;-71
2023/07/11 02:05:40;;;;;;;8.90;4.07;;;;;;;17.82;100.00;101411.91;5193308;28;20045;-71
2023/07/11 02:08:12;;;;;;;6.82;3.90;;;;;;;17.80;100.00;101414.75;5197131;28;20054;-71
2023/07/11 02:10:43;;;;;;;6.45;4.32;;;;;;;17.80;100.00;101411.22;5194213;28;20760;-71
2023/07/11 02:13:15;;;;;;;8.60;4.15;;;;;;;17.76;100.00;101404.41;5196192;28;20041;-71
2023/07/11 02:15:46;;;;;;;9.18;3.70;;;;;;;17.70;100.00;101403.16;5191423;28;20164;-71
2023/07/11 02:18:18;;;;;;;6.20;3.60;;;;;;;17.57;100.00;101399.97;5195064;28;20038;-71
2023/07/11 02:20:50;;;;;;;7.00;3.72;;;;;;;17.69;100.00;101397.91;5196532;28;20392;-71
2023/07/11 02:23:21;;;;;;;8.23;3.65;;;;;;;17.47;100.00;101397.31;5196603;28;20026;-71
2023/07/11 02:25:53;;;;;;;7.40;4.50;;;;;;;17.62;100.00;101390.44;5192402;28;20029;-71
2023/07/11 02:28:25;;;;;;;7.10;4.10;;;;;;;17.48;100.00;101387.38;5193030;28;20034;-71
2023/07/11 02:30:56;;;;;;;8.60;3.90;;;;;;;17.42;100.00;101384.25;5193727;28;20017;-71
2023/07/11 02:33:28;;;;;;;10.00;4.10;;;;;;;17.34;100.00;101381.47;5194043;28;20049;-71
2023/07/11 02:35:59;;;;;;;10.57;4.40;;;;;;;17.47;100.00;101381.13;5195915;28;20030;-71
2023/07/11 02:38:30;;;;;;;8.20;4.32;;;;;;;17.40;100.00;101375.47;5197869;28;20400;-71
2023/07/11 02:41:02;;;;;;;8.02;4.13;;;;;;;17.34;100.00;101370.69;5190938;28;20041;-71
2023/07/11 02:43:33;;;;;;;8.20;4.40;;;;;;;17.47;100.00;101366.78;5192623;28;20080;-71
2023/07/11 02:46:05;;;;;;;9.40;4.32;;;;;;;17.34;100.00;101365.28;5197701;28;20025;-71
2023/07/11 02:48:36;;;;;;;9.63;4.35;;;;;;;17.24;100.00;101364.50;5195631;28;20022;-71
2023/07/11 02:51:08;;;;;;;10.15;4.25;;;;;;;17.21;100.00;101353.97;5204444;28;20040;-71
2023/07/11 02:53:39;;;;;;;6.13;4.30;;;;;;;17.17;100.00;101356.13;5202214;28;20022;-71
2023/07/11 02:56:10;;;;;;;9.73;4.70;;;;;;;17.24;100.00;101353.69;5196310;28;20427;-71
2023/07/11 02:58:42;;;;;;;8.27;4.93;;;;;;;17.29;100.00;101348.69;5204049;28;20045;-71
2023/07/11 03:01:13;;;;;;;9.00;5.03;;;;;;;17.34;100.00;101353.66;5203620;28;20109;-71
2023/07/11 03:03:45;;;;;;;8.55;5.15;;;;;;;17.21;100.00;101348.59;5207198;28;21439;-71
2023/07/11 03:06:18;;;;;;;8.35;5.22;;;;;;;17.16;100.00;101340.97;5206510;28;20022;-71
2023/07/11 03:08:49;;;;;;;7.50;5.07;;;;;;;17.25;100.00;101341.91;5206488;28;20258;-71
2023/07/11 03:11:21;;;;;;;8.88;4.85;;;;;;;17.32;100.00;101334.91;5210120;28;20046;-71
2023/07/11 03:13:52;;;;;;;8.27;4.85;;;;;;;17.20;100.00;101328.88;5202648;28;20787;-71
2023/07/11 03:16:24;;;;;;;10.23;4.82;;;;;;;17.16;100.00;101337.38;5195759;28;20022;-71
2023/07/11 03:18:55;;;;;;;9.13;4.40;;;;;;;17.24;100.00;101332.13;5194393;28;20037;-71
2023/07/11 03:21:27;;;;;;;7.00;4.25;;;;;;;17.11;100.00;101321.66;5192895;28;20077;-71
2023/07/11 03:23:58;;;;;;;7.88;4.90;;;;;;;17.07;100.00;101322.09;5191445;28;20041;-71
2023/07/11 03:26:30;;;;;;;6.47;4.60;;;;;;;17.12;100.00;101327.91;5193296;28;20481;-71
2023/07/11 03:29:01;;;;;;;7.47;4.55;;;;;;;17.04;100.00;101328.66;5191690;28;20030;-71
2023/07/11 03:31:33;;;;;;;9.90;4.60;;;;;;;17.14;100.00;101320.50;5190947;28;20041;-71
2023/07/11 03:34:04;;;;;;;7.07;4.28;;;;;;;17.17;100.00;101320.22;5192975;28;20481;-71
2023/07/11 03:36:35;;;;;;;6.40;4.10;;;;;;;17.07;100.00;101309.50;5194257;28;20079;-71
2023/07/11 03:39:07;;;;;;;7.28;4.70;;;;;;;17.09;100.00;101312.03;5191196;28;20614;-71
2023/07/11 03:41:39;;;;;;;7.05;4.40;;;;;;;17.21;100.00;101314.38;5193056;28;20500;-71
2023/07/11 03:44:10;;;;;;;5.60;4.13;;;;;;;17.17;100.00;101317.53;5191812;28;20374;-71
2023/07/11 03:46:42;;;;;;;7.70;4.40;;;;;;;17.13;100.00;101316.13;5195515;28;20030;-70
2023/07/11 03:49:13;;;;;;;5.72;4.03;;;;;;;17.10;100.00;101306.47;5195514;28;20444;-71
2023/07/11 03:51:44;;;;;;;8.32;3.83;;;;;;;17.13;100.00;101313.44;5193879;28;20312;-71
2023/07/11 03:54:16;;;;;;;7.80;3.90;;;;;;;17.12;100.00;101306.34;5193450;28;20314;-71
2023/07/11 03:56:47;;;;;;;7.55;4.25;;;;;;;17.11;100.00;101305.50;5193757;28;20022;-71
2023/07/11 03:59:20;;;;;;;6.72;4.65;;;;;;;17.15;100.00;101312.28;5192180;28;20056;-71
2023/07/11 04:01:51;;;;;;;7.45;4.18;;;;;;;17.16;100.00;101302.34;5194438;28;20037;-71
2023/07/11 04:04:22;;;;;;;7.45;4.30;;;;;;;17.24;100.00;101299.75;5201277;28;20034;-71
2023/07/11 04:06:54;;;;;;;8.13;3.88;;;;;;;17.18;100.00;101301.22;5192592;28;20610;-71
2023/07/11 04:09:25;;;;;;;8.23;4.47;;;;;;;17.16;100.00;101292.44;5194833;28;20093;-71
2023/07/11 04:11:57;;;;;;;6.60;4.00;;;;;;;17.17;100.00;101293.25;5193005;28;20385;-70
2023/07/11 04:14:28;;;;;;;9.43;4.28;;;;;;;17.19;100.00;101293.97;5200898;28;20132;-71
2023/07/11 04:16:59;;;;;;;5.50;3.70;;;;;;;17.17;100.00;101290.56;5201605;28;20163;-71
2023/07/11 04:19:31;;;;;;;8.10;3.92;;;;;;;17.20;100.00;101287.56;5194201;28;20045;-71
2023/07/11 04:22:03;;;;;;;7.40;4.40;;;;;;;17.20;100.00;101280.34;5199206;28;20042;-70
2023/07/11 04:24:34;;;;;;;7.97;3.65;;;;;;;17.23;100.00;101274.63;5200185;28;20042;-71
2023/07/11 04:27:05;;;;;;;7.38;3.70;;;;;;;17.24;100.00;101278.19;5196449;28;20500;-70
2023/07/11 04:29:37;;;;;;;4.78;3.42;;;;;;;17.28;100.00;101271.50;5206139;28;20032;-71
2023/07/11 04:32:09;;;;;;;8.18;3.60;;;;;;;17.31;100.00;101264.94;5206390;28;20544;-71
2023/07/11 04:34:41;;;;;;;7.22;3.97;;;;;;;17.35;100.00;101269.03;5195751;28;20092;-71
2023/07/11 04:37:12;;;;;;;5.97;3.45;;;;;;;17.43;100.00;101261.88;5201555;28;20056;-71
2023/07/11 04:39:44;;;;;;;7.53;3.47;;;;;;;17.41;100.00;101263.00;5197385;28;20412;-70
2023/07/11 04:42:15;;;;;;;7.38;3.45;;;;;;;17.49;100.00;101259.56;5194060;28;20029;-70
2023/07/11 04:44:46;;;;;;;8.10;4.10;;;;;;;17.53;100.00;101261.81;5198055;28;20392;-71
2023/07/11 04:47:18;;;;;;;6.05;3.53;;;;;;;17.57;100.00;101262.34;5196798;28;20038;-71
2023/07/11 04:49:49;;;;;;;6.25;3.28;;;;;;;17.54;100.00;101259.97;5197968;28;20026;-71
2023/07/11 04:52:21;;;;;;;5.97;3.30;;;;;;;17.59;100.00;101254.97;5196368;28;20037;-71
2023/07/11 04:54:52;;;;;;;8.25;3.60;;;;;;;17.58;100.00;101254.09;5193293;28;20030;-71
2023/07/11 04:57:24;;;;;;;6.45;3.00;;;;;;;17.60;100.00;101246.72;5195078;28;20487;-70
2023/07/11 04:59:55;;;;;;;5.72;3.50;;;;;;;17.64;100.00;101245.41;5195288;28;20483;-71
2023/07/11 05:02:27;;;;;;;6.00;3.30;;;;;;;17.68;100.00;101251.34;5199652;28;20092;-71
2023/07/11 05:04:58;;;;;;;5.80;2.80;;;;;;;17.72;100.00;101241.06;5198304;28;20097;-71
2023/07/11 05:07:30;;;;;;;6.32;3.30;;;;;;;17.74;100.00;101233.69;5196603;28;20050;-70
2023/07/11 05:10:01;;;;;;;5.55;3.22;;;;;;;17.79;100.00;101231.34;5197159;28;20070;-70
2023/07/11 05:12:32;;;;;;;6.15;2.85;;;;;;;17.85;100.00;101224.50;5192818;28;20044;-71
2023/07/11 05:15:04;;;;;;;7.13;2.67;;;;;;;17.86;100.00;101228.94;5200486;28;20034;-70
2023/07/11 05:17:36;;;;;;;6.38;2.83;;;;;;;17.92;100.00;101226.44;5196790;28;20734;-71
2023/07/11 05:20:08;;;;;;;5.32;2.95;;;;;;;17.91;100.00;101223.88;5193936;28;20039;-71
2023/07/11 05:22:39;;;;;;;4.75;2.83;;;;;;;18.01;100.00;101225.50;5193386;28;21998;-71
2023/07/11 05:25:10;;;;;;;6.13;2.90;;;;;;;17.99;100.00;101215.88;5195875;28;20034;-71
2023/07/11 05:27:42;;;;;;;6.03;2.97;;;;;;;18.08;100.00;101224.88;5195706;28;20037;-71
2023/07/11 05:30:13;;;;;;;7.32;3.40;;;;;;;18.19;100.00;101222.75;5198088;28;20030;-71
2023/07/11 05:32:45;;;;;;;6.68;2.90;;;;;;;18.16;100.00;101206.00;5195222;28;20026;-71
2023/07/11 05:35:16;;;;;;;4.78;2.75;;;;;;;18.16;100.00;101212.28;5196390;28;20052;-71
2023/07/11 05:37:47;;;;;;;7.32;3.00;;;;;;;18.28;100.00;101212.03;5194613;28;20743;-71
2023/07/11 05:40:19;;;;;;;5.68;2.60;;;;;;;18.28;100.00;101207.47;5195299;28;20619;-71
2023/07/11 05:42:50;;;;;;;8.00;3.13;;;;;;;18.32;100.00;101208.84;5195306;28;20018;-71
2023/07/11 05:45:21;;;;;;;6.68;2.88;;;;;;;18.35;100.00;101204.97;5192054;28;20038;-71
2023/07/11 05:47:53;;;;;;;6.50;2.97;;;;;;;18.40;100.00;101206.19;5196688;28;20057;-71
2023/07/11 05:50:24;;;;;;;5.28;2.67;;;;;;;18.44;100.00;101201.31;5194161;28;20029;-72
2023/07/11 05:52:56;;;;;;;7.43;3.03;;;;;;;18.54;100.00;101206.59;5191882;28;20160;-71
2023/07/11 05:55:27;;;;;;;5.35;2.28;;;;;;;18.54;100.00;101201.19;5197604;28;20049;-71
2023/07/11 05:57:59;;;;;;;6.00;2.70;;;;;;;18.60;100.00;101196.00;5207960;28;20141;-71
2023/07/11 06:00:30;;;;;;;6.10;3.00;;;;;;;18.69;100.00;101198.72;5210238;28;20401;-72
2023/07/11 06:03:01;;;;;;;6.43;3.00;;;;;;;18.73;100.00;101195.53;5205808;28;20029;-72
2023/07/11 06:05:34;;;;;;;7.68;2.88;;;;;;;18.87;100.00;101186.00;5204849;28;20069;-71
2023/07/11 06:08:05;;;;;;;6.10;2.85;;;;;;;18.95;100.00;101182.50;5203813;28;20057;-72
2023/07/11 06:10:37;;;;;;;4.57;2.47;;;;;;;19.04;100.00;101175.22;5200995;28;20477;-71
2023/07/11 06:13:11;;;;;;;5.65;2.70;;;;;;;19.07;100.00;101177.63;5203018;28;20038;-72
2023/07/11 06:15:43;;;;;;;6.32;2.55;;;;;;;19.13;100.00;101177.78;5202373;28;20026;-72
2023/07/11 06:18:14;;;;;;;5.53;2.25;;;;;;;19.24;100.00;101178.50;5197306;28;20064;-71
2023/07/11 06:20:45;;;;;;;5.78;2.47;;;;;;;19.34;100.00;101174.63;5202471;28;20113;-71
2023/07/11 06:23:18;;;;;;;9.65;2.88;;;;;;;19.37;100.00;101182.41;5206555;28;20041;-71
2023/07/11 06:25:50;;;;;;;6.30;2.58;;;;;;;19.50;100.00;101171.09;5195936;28;20030;-71
2023/07/11 06:28:21;;;;;;;6.32;2.75;;;;;;;19.64;100.00;101180.41;5195481;28;20108;-69
2023/07/11 06:30:58;;;;;;;6.50;2.50;;;;;;;19.82;100.00;101179.44;5208051;28;20033;-69
2023/07/11 06:33:29;;;;;;;6.03;2.60;;;;;;;19.85;100.00;101181.78;5199284;28;20106;-69
2023/07/11 06:36:03;;;;;;;6.47;2.58;;;;;;;19.85;100.00;101181.78;5208591;28;20095;-69
2023/07/11 06:38:35;;;;;;;7.13;2.50;;;;;;;19.99;100.00;101181.09;5204258;28;20492;-69
2023/07/11 06:41:06;;;;;;;5.35;2.35;;;;;;;20.11;100.00;101176.16;5201551;28;20021;-69
2023/07/11 06:43:37;;;;;;;5.70;2.65;;;;;;;20.21;100.00;101167.84;5203105;28;20034;-69
2023/07/11 06:46:09;;;;;;;6.03;2.60;;;;;;;20.31;100.00;101171.22;5205873;28;20560;-69
2023/07/11 06:48:41;;;;;;;6.18;2.53;;;;;;;20.57;100.00;101170.97;5212503;28;20103;-69
2023/07/11 06:51:12;;;;;;;7.95;2.60;;;;;;;20.50;100.00;101167.25;5205031;28;20116;-69
2023/07/11 06:53:44;;;;;;;6.53;2.53;;;;;;;20.63;100.00;101170.28;5208889;28;20042;-68
2023/07/11 06:56:15;;;;;;;5.65;2.20;;;;;;;20.70;100.00;101167.72;5219639;28;20050;-69
2023/07/11 06:58:47;;;;;;;8.18;2.53;;;;;;;20.99;100.00;101166.25;5192279;28;20038;-69
2023/07/11 07:01:22;;;;;;;6.63;2.30;;;;;;;21.01;100.00;101165.03;5196767;28;20041;-69
2023/07/11 07:03:53;;;;;;;5.75;2.22;;;;;;;21.06;100.00;101161.78;5205984;28;20037;-69
2023/07/11 07:06:24;;;;;;;5.53;2.10;;;;;;;21.06;100.00;101161.78;5203458;28;20029;-69
2023/07/11 07:08:56;;;;;;;5.55;2.20;;;;;;;21.31;100.00;101160.59;5198441;28;20471;-69
2023/07/11 07:11:27;;;;;;;6.78;2.10;;;;;;;21.37;100.00;101159.03;5204899;28;20354;-69
2023/07/11 07:13:59;;;;;;;8.65;2.28;;;;;;;21.39;100.00;101164.28;5204084;28;20030;-69
2023/07/11 07:16:32;;;;;;;6.80;1.98;;;;;;;21.64;100.00;101163.09;5198827;28;20061;-69
2023/07/11 07:19:05;;;;;;;6.90;2.13;;;;;;;21.60;100.00;101156.34;5196400;28;20789;-69
2023/07/11 07:21:36;;;;;;;6.90;2.15;;;;;;;21.72;100.00;101167.63;5201721;28;20030;-69
2023/07/11 07:24:08;;;;;;;4.80;2.20;;;;;;;21.78;100.00;101156.00;5202033;28;20495;-69
2023/07/11 07:26:41;;;;;;;7.63;2.10;;;;;;;21.92;100.00;101159.81;5200612;28;20085;-69
2023/07/11 07:29:12;;;;;;;4.50;1.98;;;;;;;22.02;100.00;101164.97;5207114;28;20097;-68
2023/07/11 07:31:44;;;;;;;5.30;2.05;;;;;;;22.15;100.00;101158.88;5199365;28;20040;-68
2023/07/11 07:34:15;;;;;;;7.20;1.92;;;;;;;22.24;100.00;101160.47;5197736;28;20135;-68
2023/07/11 07:36:46;;;;;;;7.25;2.08;;;;;;;22.42;100.00;101150.13;5212250;28;20018;-68
2023/07/11 07:39:18;;;;;;;8.02;2.20;;;;;;;22.37;100.00;101155.28;5209781;28;20045;-68
2023/07/11 07:41:49;;;;;;;6.10;2.30;;;;;;;22.45;100.00;101148.91;5203666;28;20030;-68
2023/07/11 07:44:21;;;;;;;5.32;2.22;;;;;;;22.55;100.00;101145.88;5205106;28;20756;-68
2023/07/11 07:46:52;;;;;;;6.88;1.95;;;;;;;22.64;100.00;101142.88;5205386;28;20045;-69
2023/07/11 07:49:23;;;;;;;8.40;1.80;;;;;;;22.94;100.00;101134.66;5207251;28;20034;-68
2023/07/11 07:51:55;;;;;;;6.95;2.10;;;;;;;22.90;100.00;101128.75;5209848;28;20041;-68
2023/07/11 07:54:26;;;;;;;5.22;1.70;;;;;;;22.99;100.00;101128.63;5209010;28;20109;-69
2023/07/11 07:56:58;;;;;;;6.22;1.77;;;;;;;23.20;100.00;101128.69;5212210;28;20051;-68
2023/07/11 07:59:30;;;;;;;6.95;1.98;;;;;;;23.39;100.00;101123.63;5206336;28;20057;-68
2023/07/11 08:02:02;;;;;;;4.88;1.80;;;;;;;23.53;100.00;101128.19;5208614;28;20034;-70
2023/07/11 08:04:33;;;;;;;5.38;1.92;;;;;;;23.51;100.00;101129.38;5201148;28;20035;-71
2023/07/11 08:07:05;;;;;;;6.00;2.00;;;;;;;23.75;100.00;101131.69;5205798;28;20046;-69
2023/07/11 08:09:37;;;;;;;9.68;2.00;;;;;;;23.75;100.00;101119.97;5205243;28;20065;-70
2023/07/11 08:12:10;;;;;;;4.78;1.85;;;;;;;23.66;100.00;101128.28;5199450;28;20038;-70
2023/07/11 08:14:42;;;;;;;6.28;1.85;;;;;;;23.65;100.00;101126.59;5210777;28;20445;-70
2023/07/11 08:17:13;;;;;;;4.85;1.67;;;;;;;23.77;100.00;101120.59;5205230;28;20030;-70
2023/07/11 08:19:45;;;;;;;5.25;1.50;;;;;;;23.97;100.00;101121.63;5204617;28;20030;-70
2023/07/11 08:22:16;;;;;;;4.75;1.60;;;;;;;23.95;100.00;101118.25;5203069;28;20053;-70
2023/07/11 08:24:48;;;;;;;7.15;1.90;;;;;;;24.02;100.00;101110.94;5201614;28;20190;-70
2023/07/11 08:27:19;;;;;;;5.85;2.00;;;;;;;24.29;100.00;101116.56;5202200;28;20516;-70
2023/07/11 08:29:51;;;;;;;6.13;2.15;;;;;;;24.36;100.00;101128.38;5201129;28;20034;-70
2023/07/11 08:32:22;;;;;;;5.57;1.80;;;;;;;24.39;100.00;101121.66;5201257;28;20083;-70
2023/07/11 08:34:53;;;;;;;4.82;1.77;;;;;;;24.49;100.00;101111.22;5203651;28;20069;-70
2023/07/11 08:37:25;;;;;;;5.93;1.83;;;;;;;24.54;100.00;101107.91;5209861;28;20021;-71
2023/07/11 08:39:56;;;;;;;4.72;1.67;;;;;;;24.68;100.00;101104.19;5201876;28;20021;-71
2023/07/11 08:42:34;;;;;;;4.55;1.98;;;;;;;24.80;100.00;101099.00;5216193;28;20038;-70
2023/07/11 08:45:19;;;;;;;5.95;1.60;;;;;;;24.98;100.00;101107.41;5212246;28;20025;-70
2023/07/11 08:48:01;;;;;;;5.18;1.70;;;;;;;25.04;100.00;101101.16;5197198;28;20030;-70
2023/07/11 08:50:46;;;;;;;7.22;2.10;;;;;;;25.07;100.00;101108.09;5208062;28;20429;-70
2023/07/11 08:53:25;;;;;;;7.47;1.73;;;;;;;25.09;100.00;101096.97;5211093;28;20025;-70
2023/07/11 08:56:03;;;;;;;5.22;1.60;;;;;;;25.15;100.00;101102.41;5209272;28;20026;-70
2023/07/11 08:58:36;;;;;;;5.28;1.63;;;;;;;25.30;100.00;101099.53;5209945;28;20091;-71
2023/07/11 09:01:32;;;;;;;8.93;1.73;;;;;;;25.39;100.00;101100.16;5201262;28;20037;-70
2023/07/11 09:04:04;;;;;;;4.90;1.92;;;;;;;25.50;100.00;101096.81;5213435;28;20061;-70
2023/07/11 09:06:44;;;;;;;6.50;1.95;;;;;;;25.56;100.00;101093.25;5200297;28;20018;-70
2023/07/11 09:09:16;;;;;;;6.63;1.70;;;;;;;25.66;100.00;101095.56;5199641;28;20120;-72
2023/07/11 09:12:29;;;;;;;6.05;1.83;;;;;;;25.86;100.00;101101.00;5196927;28;20030;-71
2023/07/11 09:15:12;;;;;;;10.68;2.13;;;;;;;25.78;100.00;101090.28;5183813;28;20049;-72
2023/07/11 09:18:02;;;;;;;7.38;2.10;;;;;;;25.71;100.00;101084.81;5205975;28;20050;-71
2023/07/11 09:20:57;;;;;;;5.68;2.10;;;;;;;25.88;100.00;101093.41;5210135;28;20041;-71
2023/07/11 09:23:50;;;;;;;5.28;2.00;;;;;;;26.06;100.00;101079.13;5197938;28;20141;-71
2023/07/11 09:26:28;;;;;;;6.47;2.17;;;;;;;26.12;100.00;101085.59;5206135;28;20262;-71
2023/07/11 09:29:03;;;;;;;7.00;2.05;;;;;;;26.23;100.00;101079.47;5210986;28;20040;-71
2023/07/11 09:31:42;;;;;;;7.75;2.00;;;;;;;26.30;100.00;101076.72;5210816;28;20436;-71
2023/07/11 09:34:24;;;;;;;6.10;2.30;;;;;;;26.56;100.00;101070.28;5202256;28;20314;-72
2023/07/11 09:36:57;;;;;;;6.03;2.20;;;;;;;26.62;100.00;101069.47;5207653;28;20030;-71
2023/07/11 09:39:58;;;;;;;8.77;2.17;;;;;;;26.76;100.00;101073.78;5213960;28;20034;-70
2023/07/11 09:42:53;;;;;;;4.65;1.85;;;;;;;26.76;100.00;101072.97;5209591;28;20034;-71
2023/07/11 09:45:32;;;;;;;5.32;2.30;;;;;;;26.70;100.00;101082.88;5211251;28;20057;-71
2023/07/11 09:48:14;;;;;;;7.07;2.10;;;;;;;26.61;100.00;101084.19;5210906;28;20108;-72
2023/07/11 09:50:51;;;;;;;7.15;2.13;;;;;;;26.58;100.00;101081.88;5208413;28;20338;-71
2023/07/11 09:53:26;;;;;;;6.05;2.03;;;;;;;26.74;100.00;101073.19;5207026;28;20034;-71
2023/07/11 09:56:03;;;;;;;5.72;2.10;;;;;;;26.82;100.00;101068.50;5204961;28;20544;-72
2023/07/11 09:58:35;;;;;;;6.35;2.13;;;;;;;26.75;100.00;101060.31;5211538;28;20022;-71
2023/07/11 10:01:17;;;;;;;5.28;2.05;;;;;;;26.77;100.00;101063.69;5210248;28;20481;-71
2023/07/11 10:03:53;;;;;;;6.25;2.20;;;;;;;26.70;100.00;101071.94;5213047;28;20424;-71
2023/07/11 10:06:41;;;;;;;8.77;2.17;;;;;;;26.68;100.00;101065.84;5210746;28;20423;-71
2023/07/11 10:09:12;;;;;;;5.93;2.30;;;;;;;26.58;100.00;101065.47;5210733;28;20054;-71
2023/07/11 10:11:52;;;;;;;4.95;2.10;;;;;;;26.59;100.00;101056.22;5208915;28;20021;-71
2023/07/11 10:14:31;;;;;;;6.38;2.13;;;;;;;26.62;100.00;101061.25;5203246;28;20476;-71
2023/07/11 10:17:32;;;;;;;6.22;1.95;;;;;;;26.73;100.00;101057.81;5204120;28;20532;-71
2023/07/11 10:20:07;;;;;;;6.45;2.03;;;;;;;26.75;100.00;101047.50;5206068;28;20036;-71
2023/07/11 10:22:42;;;;;;;6.35;2.03;;;;;;;26.96;100.00;101053.66;5203726;28;20029;-72
2023/07/11 10:25:16;;;;;;;6.38;2.15;;;;;;;26.92;100.00;101046.94;5202775;28;20034;-71
2023/07/11 10:28:02;;;;;;;6.80;2.00;;;;;;;26.98;100.00;101046.06;5201485;28;20030;-71
2023/07/11 10:30:38;;;;;;;7.97;2.15;;;;;;;27.01;100.00;101047.53;5211207;28;20034;-71
2023/07/11 10:33:19;;;;;;;8.43;2.83;;;;;;;27.02;100.00;101046.47;5205147;28;20046;-71
2023/07/11 10:36:11;;;;;;;8.30;2.40;;;;;;;27.02;100.00;101044.59;5209504;28;20052;-71
2023/07/11 10:38:57;;;;;;;7.68;2.88;;;;;;;27.02;100.00;101030.03;5204328;28;20030;-72
2023/07/11 10:41:39;;;;;;;10.90;3.00;;;;;;;27.05;100.00;101032.34;5203089;28;20210;-71
2023/07/11 10:44:20;;;;;;;6.85;2.50;;;;;;;27.12;100.00;101028.47;5205544;28;20120;-71
2023/07/11 10:46:53;;;;;;;7.18;2.00;;;;;;;27.32;100.00;101025.59;5207147;28;20451;-71
2023/07/11 10:49:52;;;;;;;6.90;2.00;;;;;;;27.37;100.00;101019.47;5212571;28;20045;-71
2023/07/11 10:52:25;;;;;;;4.70;1.90;;;;;;;27.38;100.00;101021.13;5204363;28;20511;-71
2023/07/11 10:55:05;;;;;;;5.90;2.20;;;;;;;27.49;100.00;101016.81;5204209;28;20128;-70
2023/07/11 10:57:42;;;;;;;8.10;2.40;;;;;;;27.52;100.00;101025.44;5201297;28;20057;-71
2023/07/11 11:00:29;;;;;;;6.03;2.30;;;;;;;27.58;100.00;101021.78;5199877;28;20030;-72
2023/07/11 11:03:17;;;;;;;7.18;2.53;;;;;;;27.68;100.00;101013.03;5201929;28;20066;-72
2023/07/11 11:05:57;;;;;;;6.18;2.25;;;;;;;27.84;100.00;101019.81;5199593;28;20022;-73
2023/07/11 11:08:37;;;;;;;5.57;2.22;;;;;;;27.80;100.00;101010.38;5199130;28;20104;-72
2023/07/11 11:11:21;;;;;;;7.22;2.47;;;;;;;28.07;100.00;101008.19;5203688;28;20030;-71
2023/07/11 11:14:15;;;;;;;5.82;2.08;;;;;;;28.13;100.00;101020.16;5200997;28;20058;-71
2023/07/11 11:17:19;;;;;;;4.93;2.17;;;;;;;28.14;100.00;100997.16;5212131;28;20034;-71
2023/07/11 11:20:19;;;;;;;6.90;2.30;;;;;;;28.13;100.00;100995.44;5198254;28;20040;-71
2023/07/11 11:22:57;;;;;;;5.20;2.05;;;;;;;28.09;100.00;100989.59;5199931;28;20041;-71
2023/07/11 11:25:47;;;;;;;5.75;2.30;;;;;;;28.18;100.00;100997.53;5205591;28;20493;-72
2023/07/11 11:28:32;;;;;;;5.35;2.30;;;;;;;28.22;100.00;100990.50;5197866;28;20053;-72
2023/07/11 11:31:06;;;;;;;5.53;2.08;;;;;;;28.28;100.00;100978.59;5209279;28;20026;-71
2023/07/11 11:33:49;;;;;;;6.22;2.20;;;;;;;28.32;100.00;100966.94;5206912;28;20034;-71
2023/07/11 11:36:59;;;;;;;8.15;2.40;;;;;;;28.57;100.00;100970.63;5203742;28;20515;-71
2023/07/11 11:39:49;;;;;;;5.85;2.50;;;;;;;28.63;100.00;100962.31;5207224;28;20113;-72
2023/07/11 11:42:30;;;;;;;4.13;1.83;;;;;;;28.70;100.00;100965.75;5206846;28;20516;-71
2023/07/11 11:45:10;;;;;;;6.75;2.50;;;;;;;28.76;98.00;100960.41;5203441;28;20030;-72
2023/07/11 11:47:43;;;;;;;10.40;2.38;;;;;;;28.77;99.23;100967.59;5201241;28;20061;-71
2023/07/11 11:50:18;;;;;;;5.53;1.90;;;;;;;28.78;93.99;100970.06;5208565;28;20069;-71